Startpagina
METAR-TAF:

METAR-TAF

Vliegvelden :

Saratoga, Wyoming, Verenigde Staten

breedte: 41-26-41N, lengte: 106-49-25W, hoogte: 2137 m

Actueel weer

Dit bericht is 24 minuten geleden gemaakt, om 16:20 UTC
Wind 9 kt uit het noordwesten met uitschieters tot 14 kt
Temperatuur 5°C
Vochtigheid 48%
Druk 1026 hPa
Zicht: 16.1 km
Gebroken wolken op 4100 ft
Gebroken wolken op 4800 ft
Gebroken wolken op 6000 ft

METAR: KSAA 181620Z AUTO 32009G14KT 10SM BKN041 BKN048 BKN060 05/M05 A3031 RMK AO2

Tijdstip: 10:44 (16:44 UTC)


TAF: ontbreekt

Waarnemingen en weersverwachtingen van meer dan 4000 vliegvelden (METAR en TAF).

De beschikbare stations zijn de gele en rode punten op de kaart.

Ga met uw muis naar het station om de naam te zien.

Klik dan om waarnemingen en weersverwachtingen te zien.

kaart wijzigen: klik op de groene knoppen met een zwart kruis om in te zoomen, op de groene knop met een streepje om uit te zoomen of op de groene pijlen voor aangrenzende kaarten.


METAR-TAF: